createdAt,value
2022-11-29T05:07:00.066Z,6.21
2022-11-29T05:09:34.538Z,6.29
2022-11-29T05:12:24.482Z,6.43
2022-11-29T05:15:14.479Z,6.36
2022-11-29T05:17:57.607Z,6.21
2022-11-29T05:20:26.610Z,6.17
2022-11-29T05:23:20.008Z,6.17
2022-11-29T05:25:58.028Z,6.12
2022-11-29T05:28:56.391Z,6.13
2022-11-29T05:32:04.390Z,5.96
2022-11-29T05:34:51.803Z,6.09
2022-11-29T05:37:29.530Z,6.02
2022-11-29T05:40:10.028Z,6.08
2022-11-29T05:42:52.604Z,6.13
2022-11-29T05:45:32.111Z,6.23
2022-11-29T05:48:14.198Z,6.25
2022-11-29T05:50:51.137Z,6.30
2022-11-29T05:53:33.050Z,6.27
2022-11-29T05:56:03.206Z,6.17
2022-11-29T05:58:43.348Z,5.75
2022-11-29T06:01:34.453Z,5.52
2022-11-29T06:04:17.216Z,5.48
2022-11-29T06:06:55.222Z,5.31
2022-11-29T06:09:35.798Z,5.63
2022-11-29T06:12:18.174Z,5.65
2022-11-29T06:14:48.031Z,5.38
2022-11-29T06:17:38.791Z,5.23
2022-11-29T06:20:39.451Z,5.23
2022-11-29T06:23:25.292Z,5.28
2022-11-29T06:26:03.527Z,5.34
2022-11-29T06:28:55.437Z,5.42
2022-11-29T06:31:38.491Z,5.47
2022-11-29T06:34:30.687Z,5.57
2022-11-29T06:37:09.075Z,5.65
2022-11-29T06:39:37.006Z,5.88
2022-11-29T06:42:05.214Z,6.02
2022-11-29T06:44:32.767Z,6.18
2022-11-29T06:47:19.381Z,6.17
2022-11-29T06:49:51.047Z,6.32
2022-11-29T06:52:50.944Z,6.38
2022-11-29T06:55:41.450Z,6.39
2022-11-29T06:58:31.445Z,6.55
2022-11-29T07:01:35.062Z,6.16
2022-11-29T07:04:11.797Z,6.29
2022-11-29T07:07:07.323Z,6.46
2022-11-29T07:09:35.754Z,6.36
2022-11-29T07:12:03.627Z,6.22
2022-11-29T07:14:32.226Z,6.20
2022-11-29T07:17:33.642Z,6.18
2022-11-29T07:20:29.977Z,6.22
2022-11-29T07:23:17.134Z,6.40
2022-11-29T07:26:12.030Z,6.32
2022-11-29T07:28:39.726Z,6.29
2022-11-29T07:31:32.462Z,6.23
2022-11-29T07:34:32.131Z,6.32
2022-11-29T07:37:04.050Z,6.34
2022-11-29T07:39:43.712Z,6.22
2022-11-29T07:42:17.356Z,6.26
2022-11-29T07:45:07.943Z,6.22
2022-11-29T07:47:36.163Z,6.30
2022-11-29T07:50:04.218Z,6.31
2022-11-29T07:52:32.149Z,6.30
2022-11-29T07:54:59.466Z,6.24
2022-11-29T07:57:26.883Z,6.18
2022-11-29T07:59:54.234Z,6.17
2022-11-29T08:02:31.811Z,6.29
2022-11-29T08:04:59.311Z,6.33
2022-11-29T08:07:26.576Z,6.25
2022-11-29T08:09:53.959Z,6.37
2022-11-29T08:12:21.263Z,6.33
2022-11-29T08:14:48.563Z,6.39
2022-11-29T08:17:15.783Z,6.55
2022-11-29T08:19:43.082Z,6.36
2022-11-29T08:22:11.066Z,6.41
2022-11-29T08:24:38.361Z,6.34
2022-11-29T08:27:05.905Z,6.46
2022-11-29T08:29:34.238Z,6.46
2022-11-29T08:32:01.998Z,6.63
2022-11-29T08:34:29.852Z,6.46
2022-11-29T08:36:57.499Z,6.34
2022-11-29T08:39:25.243Z,6.49
2022-11-29T08:41:52.570Z,6.61
2022-11-29T08:44:20.247Z,6.79
2022-11-29T08:47:06.067Z,6.76
2022-11-29T08:49:33.801Z,7.04
2022-11-29T08:52:19.678Z,6.67
2022-11-29T08:54:47.661Z,6.91
2022-11-29T09:00:05.559Z,6.97
2022-11-29T09:02:33.041Z,7.19
2022-11-29T09:05:00.358Z,7.37
2022-11-29T09:07:28.121Z,7.24
2022-11-29T09:09:55.851Z,7.29
2022-11-29T09:12:23.159Z,7.08
2022-11-29T09:14:50.969Z,7.11
2022-11-29T09:17:18.237Z,7.43
2022-11-29T09:19:45.739Z,7.48
2022-11-29T09:22:13.803Z,7.39
2022-11-29T09:24:41.163Z,7.61
2022-11-29T09:27:08.642Z,7.65
2022-11-29T09:29:36.551Z,7.54
2022-11-29T09:32:04.075Z,7.64
2022-11-29T09:34:31.492Z,7.68
2022-11-29T09:36:59.055Z,7.82
2022-11-29T09:39:26.487Z,7.53
2022-11-29T09:42:15.616Z,7.50
2022-11-29T09:45:05.623Z,8.13
2022-11-29T09:48:06.862Z,7.64
2022-11-29T09:50:35.493Z,7.79
2022-11-29T09:53:08.855Z,7.64
2022-11-29T09:55:56.106Z,7.72
2022-11-29T09:58:33.304Z,7.90
2022-11-29T10:01:06.446Z,7.86
2022-11-29T10:03:44.685Z,7.66
2022-11-29T10:06:24.355Z,8.00
2022-11-29T10:08:54.709Z,8.19
2022-11-29T10:11:25.120Z,8.45
2022-11-29T10:13:59.747Z,8.63
2022-11-29T10:16:49.563Z,8.62
2022-11-29T10:19:46.701Z,8.59
2022-11-29T10:22:34.703Z,8.89
2022-11-29T10:25:03.350Z,8.82
2022-11-29T10:27:31.237Z,8.88
2022-11-29T10:30:00.972Z,8.97
2022-11-29T10:32:32.015Z,8.89
2022-11-29T10:35:00.875Z,9.27
2022-11-29T10:37:32.790Z,8.79
2022-11-29T10:40:07.035Z,8.99
2022-11-29T10:42:49.274Z,9.09
2022-11-29T10:45:38.833Z,9.03
2022-11-29T10:48:20.343Z,9.18
2022-11-29T10:50:50.185Z,8.93
2022-11-29T10:53:25.855Z,8.71
2022-11-29T10:55:58.348Z,8.99
2022-11-29T10:58:30.419Z,8.95
2022-11-29T11:00:59.670Z,9.10
2022-11-29T11:03:32.358Z,8.73
2022-11-29T11:06:08.067Z,8.81
2022-11-29T11:08:35.954Z,8.85
2022-11-29T11:11:06.171Z,9.00
2022-11-29T11:13:34.987Z,9.20
2022-11-29T11:16:32.788Z,8.78
2022-11-29T11:19:21.419Z,8.79
2022-11-29T11:21:48.696Z,8.94
2022-11-29T11:24:32.584Z,8.93
2022-11-29T11:27:01.240Z,8.98
2022-11-29T11:29:44.130Z,9.10
2022-11-29T11:32:18.034Z,9.04
2022-11-29T11:34:57.315Z,8.83
2022-11-29T11:37:28.738Z,9.01
2022-11-29T11:39:59.791Z,9.09
2022-11-29T11:42:38.267Z,8.71
2022-11-29T11:45:05.928Z,8.85
2022-11-29T11:47:37.110Z,8.81
2022-11-29T11:50:12.414Z,8.98
2022-11-29T11:52:41.303Z,9.04
2022-11-29T11:55:37.276Z,9.05
2022-11-29T11:58:16.465Z,9.15
2022-11-29T12:01:04.784Z,8.88
2022-11-29T12:03:57.635Z,8.83
2022-11-29T12:06:25.390Z,8.79
2022-11-29T12:09:16.443Z,8.70
2022-11-29T12:11:46.718Z,8.71
2022-11-29T12:14:39.148Z,8.52
2022-11-29T12:17:20.644Z,8.64
2022-11-29T12:19:58.942Z,8.57
2022-11-29T12:22:32.808Z,8.80
2022-11-29T12:25:06.371Z,8.63
2022-11-29T12:27:33.618Z,8.54
2022-11-29T12:30:01.246Z,8.28
2022-11-29T12:32:37.256Z,8.50
2022-11-29T12:35:29.550Z,8.55
2022-11-29T12:38:13.230Z,8.61
2022-11-29T12:41:00.114Z,8.31
2022-11-29T12:43:52.111Z,8.38
2022-11-29T12:46:27.761Z,8.32
2022-11-29T12:49:40.761Z,8.27
2022-11-29T12:52:23.489Z,8.41
2022-11-29T12:55:01.988Z,8.33
2022-11-29T12:57:35.659Z,8.19
2022-11-29T13:00:12.833Z,8.49
2022-11-29T13:02:55.121Z,8.44
2022-11-29T13:05:33.682Z,8.38
2022-11-29T13:08:35.881Z,8.44
2022-11-29T13:11:07.073Z,8.38
2022-11-29T13:13:43.871Z,8.34
2022-11-29T13:16:23.968Z,8.46
2022-11-29T13:19:23.766Z,8.55
2022-11-29T13:22:02.951Z,8.50
2022-11-29T13:24:46.290Z,8.54
2022-11-29T13:27:27.282Z,8.44
2022-11-29T13:29:55.989Z,8.34
2022-11-29T13:32:47.630Z,8.73
2022-11-29T13:35:15.120Z,8.41
2022-11-29T13:37:55.027Z,8.17
2022-11-29T13:41:01.587Z,8.25
2022-11-29T13:43:43.882Z,8.29
2022-11-29T13:46:35.604Z,8.27
2022-11-29T13:49:03.475Z,7.89
2022-11-29T13:51:37.401Z,8.06
2022-11-29T13:54:26.780Z,8.16
2022-11-29T13:57:06.746Z,8.30
2022-11-29T13:59:41.579Z,8.36
2022-11-29T14:02:29.769Z,8.47
2022-11-29T14:04:57.921Z,8.54
2022-11-29T14:07:25.234Z,8.53
2022-11-29T14:10:03.954Z,8.31
2022-11-29T14:12:39.863Z,8.38
2022-11-29T14:15:22.538Z,8.51
2022-11-29T14:17:51.742Z,8.64
2022-11-29T14:20:22.726Z,8.52
2022-11-29T14:23:05.605Z,8.45
2022-11-29T14:25:54.957Z,8.58
2022-11-29T14:28:22.254Z,8.45
2022-11-29T14:30:58.545Z,8.29
2022-11-29T14:33:42.378Z,8.09
2022-11-29T14:36:36.967Z,8.17
2022-11-29T14:39:24.041Z,8.08
2022-11-29T14:42:14.562Z,7.91
2022-11-29T14:45:06.312Z,7.94
2022-11-29T14:47:46.926Z,8.02
2022-11-29T14:50:42.107Z,7.98
2022-11-29T14:53:30.216Z,8.00
2022-11-29T14:56:32.010Z,7.91
2022-11-29T14:59:36.549Z,8.00
2022-11-29T15:02:39.826Z,7.77
2022-11-29T15:05:15.791Z,7.93
2022-11-29T15:07:51.196Z,7.85
2022-11-29T15:10:24.211Z,7.90
2022-11-29T15:12:52.579Z,7.68
2022-11-29T15:16:10.588Z,7.69
2022-11-29T15:18:52.157Z,7.47
2022-11-29T15:21:34.578Z,7.71
2022-11-29T15:24:10.707Z,7.68
2022-11-29T15:26:38.142Z,7.70
2022-11-29T15:29:18.040Z,7.62
2022-11-29T15:31:51.913Z,7.39
2022-11-29T15:34:30.202Z,7.44
2022-11-29T15:36:58.558Z,7.48
2022-11-29T15:39:32.829Z,7.43
2022-11-29T15:42:10.371Z,7.43
2022-11-29T15:44:38.111Z,7.40
2022-11-29T15:47:26.679Z,7.20
2022-11-29T15:49:54.331Z,7.17
2022-11-29T15:52:31.073Z,7.25
2022-11-29T15:55:12.167Z,7.02
2022-11-29T15:57:42.829Z,7.00
2022-11-29T16:00:24.164Z,7.00
2022-11-29T16:02:56.536Z,6.94
2022-11-29T16:05:29.262Z,7.12
2022-11-29T16:08:01.179Z,6.97
2022-11-29T16:10:39.498Z,7.23
2022-11-29T16:13:31.158Z,7.25
2022-11-29T16:16:20.723Z,7.11
2022-11-29T16:18:50.435Z,7.14
2022-11-29T16:21:27.248Z,7.13
2022-11-29T16:23:55.531Z,7.10
2022-11-29T16:26:26.266Z,7.16
2022-11-29T16:28:56.429Z,7.25
2022-11-29T16:31:32.123Z,6.96
2022-11-29T16:34:15.703Z,6.90
2022-11-29T16:36:43.041Z,6.97
2022-11-29T16:39:23.071Z,6.96
2022-11-29T16:42:18.295Z,7.00
2022-11-29T16:44:50.199Z,7.04
2022-11-29T16:47:20.402Z,7.07
2022-11-29T16:50:03.069Z,7.03
2022-11-29T16:52:33.131Z,7.03
2022-11-29T16:55:00.969Z,6.93
2022-11-29T16:57:29.676Z,6.80
2022-11-29T16:59:57.083Z,6.92
2022-11-29T17:02:24.743Z,6.98
2022-11-29T17:04:52.355Z,6.88
2022-11-29T17:07:39.200Z,6.96
2022-11-29T17:10:09.255Z,6.71
2022-11-29T17:12:36.951Z,6.69
2022-11-29T17:15:04.771Z,6.58
2022-11-29T17:17:32.690Z,6.52
2022-11-29T17:19:59.993Z,6.49
2022-11-29T17:22:27.302Z,6.29
2022-11-29T17:24:55.144Z,6.24
2022-11-29T17:27:22.635Z,6.30
2022-11-29T17:29:50.322Z,6.19
2022-11-29T17:32:19.080Z,6.18
2022-11-29T17:34:49.289Z,6.20
2022-11-29T17:37:16.499Z,6.30
2022-11-29T17:39:47.188Z,6.49
2022-11-29T17:42:15.226Z,6.22
2022-11-29T17:44:43.407Z,6.00
2022-11-29T17:47:10.632Z,5.97
2022-11-29T17:49:37.918Z,5.85
2022-11-29T17:52:05.729Z,5.77
2022-11-29T17:54:33.364Z,5.84
2022-11-29T17:57:00.923Z,5.84
2022-11-29T17:59:28.459Z,5.91
2022-11-29T18:01:56.194Z,5.94
2022-11-29T18:04:23.932Z,5.86
2022-11-29T18:06:51.655Z,5.90
2022-11-29T18:09:19.523Z,5.91
2022-11-29T18:11:49.685Z,5.86
2022-11-29T18:14:23.617Z,5.93
2022-11-29T18:16:52.208Z,5.94
2022-11-29T18:19:21.978Z,6.23
2022-11-29T18:21:50.427Z,6.17
2022-11-29T18:24:18.583Z,6.05
2022-11-29T18:26:46.476Z,6.33
2022-11-29T18:29:14.650Z,6.12
2022-11-29T18:31:44.106Z,6.43
2022-11-29T18:34:13.641Z,6.53
2022-11-29T18:36:44.097Z,6.42
2022-11-29T18:39:14.492Z,6.48
2022-11-29T18:41:47.869Z,6.45
2022-11-29T18:44:17.452Z,6.52
2022-11-29T18:46:46.470Z,6.50
2022-11-29T18:49:15.394Z,6.63
2022-11-29T18:51:45.550Z,6.67
2022-11-29T18:54:15.050Z,6.80
2022-11-29T18:56:43.899Z,6.80
2022-11-29T18:59:14.686Z,6.50
2022-11-29T19:01:45.847Z,6.45
2022-11-29T19:04:17.183Z,6.20
2022-11-29T19:06:44.768Z,6.23
2022-11-29T19:09:14.714Z,6.25
2022-11-29T19:11:42.543Z,6.38
2022-11-29T19:14:11.987Z,6.28
2022-11-29T19:16:42.470Z,6.32
2022-11-29T19:19:09.959Z,6.55
2022-11-29T19:21:39.701Z,6.29
2022-11-29T19:24:14.580Z,5.99
2022-11-29T19:26:46.790Z,5.87
2022-11-29T19:29:14.802Z,5.80
2022-11-29T19:31:42.534Z,5.93
2022-11-29T19:34:10.442Z,5.80
2022-11-29T19:36:43.045Z,5.64
2022-11-29T19:39:16.548Z,5.46
2022-11-29T19:41:47.068Z,5.48
2022-11-29T19:44:14.889Z,5.62
2022-11-29T19:46:45.875Z,5.58
2022-11-29T19:49:13.223Z,5.60
2022-11-29T19:51:41.458Z,5.57
2022-11-29T19:54:10.524Z,5.66
2022-11-29T19:56:38.859Z,5.93
2022-11-29T19:59:08.025Z,6.05
2022-11-29T20:01:43.804Z,6.02
2022-11-29T20:04:13.346Z,6.09
2022-11-29T20:06:41.472Z,6.13
2022-11-29T20:09:10.054Z,6.12
2022-11-29T20:11:38.600Z,6.05
2022-11-29T20:14:07.852Z,6.04
2022-11-29T20:16:37.829Z,6.01
2022-11-29T20:19:14.540Z,5.94
2022-11-29T20:21:45.074Z,5.98
2022-11-29T20:24:14.454Z,5.87
2022-11-29T20:26:46.052Z,5.88
2022-11-29T20:29:14.218Z,5.85
2022-11-29T20:31:49.500Z,5.94
2022-11-29T20:34:18.620Z,5.92
2022-11-29T20:37:13.639Z,5.84
2022-11-29T20:39:54.408Z,5.86
2022-11-29T20:42:49.563Z,5.83
2022-11-29T20:45:17.964Z,5.76
2022-11-29T20:47:53.578Z,5.68
2022-11-29T20:50:23.791Z,5.75
2022-11-29T20:53:13.092Z,5.70
2022-11-29T20:55:47.463Z,5.74
2022-11-29T20:58:17.579Z,5.73
2022-11-29T21:00:48.170Z,5.55
2022-11-29T21:03:16.788Z,5.48
2022-11-29T21:05:45.593Z,5.46
2022-11-29T21:08:14.603Z,5.57
2022-11-29T21:10:42.154Z,5.41
2022-11-29T21:13:11.828Z,5.41
2022-11-29T21:15:40.407Z,5.27
2022-11-29T21:18:08.158Z,5.34
2022-11-29T21:20:36.352Z,5.18
2022-11-29T21:23:22.269Z,4.99
2022-11-29T21:26:00.688Z,4.88
2022-11-29T21:28:34.385Z,4.61
2022-11-29T21:31:02.032Z,4.56
2022-11-29T21:33:29.816Z,4.56
2022-11-29T21:35:58.916Z,4.66
2022-11-29T21:38:27.611Z,4.54
2022-11-29T21:40:55.274Z,4.49
2022-11-29T21:43:50.244Z,4.60
2022-11-29T21:46:10.920Z,4.59
2022-11-29T21:48:38.317Z,4.86
2022-11-29T21:51:07.156Z,4.67
2022-11-29T21:53:36.907Z,4.82
2022-11-29T21:56:06.995Z,4.80
2022-11-29T21:58:36.112Z,4.74
2022-11-29T22:01:10.535Z,4.65
2022-11-29T22:03:40.132Z,4.63
2022-11-29T22:06:10.450Z,4.41
2022-11-29T22:08:39.641Z,4.36
2022-11-29T22:11:12.553Z,4.42
2022-11-29T22:14:01.324Z,4.36
2022-11-29T22:16:30.804Z,4.11
2022-11-29T22:18:58.083Z,4.09
2022-11-29T22:21:25.650Z,4.18
2022-11-29T22:23:53.039Z,4.06
2022-11-29T22:26:21.922Z,4.23
2022-11-29T22:28:49.728Z,4.44
2022-11-29T22:31:17.029Z,4.66
2022-11-29T22:33:44.372Z,4.58
2022-11-29T22:36:12.917Z,4.72
2022-11-29T22:38:40.599Z,4.82
2022-11-29T22:41:11.191Z,4.84
2022-11-29T22:43:39.375Z,4.92
2022-11-29T22:46:18.636Z,4.76
2022-11-29T22:48:48.058Z,4.62
2022-11-29T22:51:19.489Z,4.49
2022-11-29T22:53:55.035Z,4.40
2022-11-29T22:56:30.706Z,4.26
2022-11-29T22:58:58.443Z,4.28
2022-11-29T23:01:30.878Z,4.30
